Alcantara, Brazil
Current Conditions -  °F | °C
As of 3:00 PM on Monday 22 Dec 2014 (Local Time) from SBSL Reporting Station
Broken Clouds Broken Clouds  
Wind Chill: 86°   Ceiling: 2000
Heat Index: 90°   Visibility: 6mi
Dew Point: 70°   Wind: 16mph
Humidity: 58%   Direction: 30°NNE
Pressure: 29.83"   Gusts: NA
Location:  2.41°S, 44.41°W
Report Text: SBSL 221800Z 03014KT 9999 BKN020 30/21 Q1010
Loading
Personal Weather Stations






























Interactive Weather Map New forecast layout! Learn more

10-Day Weather Forecast

Advertisements
Track Severe Weather on mobile